createdAt,value
2022-08-22T00:02:45.270Z,1.30
2022-08-22T00:03:24.147Z,1.00
2022-08-22T00:04:24.133Z,2.30
2022-08-22T00:05:24.127Z,2.00
2022-08-22T00:06:24.113Z,2.40
2022-08-22T00:07:24.130Z,2.20
2022-08-22T00:08:24.103Z,2.20
2022-08-22T00:09:24.090Z,2.00
2022-08-22T00:10:25.582Z,2.20
2022-08-22T00:11:24.066Z,2.10
2022-08-22T00:12:24.074Z,2.20
2022-08-22T00:13:24.046Z,2.00
2022-08-22T00:14:24.026Z,2.20
2022-08-22T00:15:42.151Z,2.40
2022-08-22T00:16:24.016Z,2.10
2022-08-22T00:17:24.028Z,2.40
2022-08-22T00:18:23.988Z,2.20
2022-08-22T00:19:23.995Z,2.10
2022-08-22T00:20:26.122Z,2.30
2022-08-22T00:21:23.962Z,2.40
2022-08-22T00:22:23.976Z,2.10
2022-08-22T00:23:23.937Z,2.40
2022-08-22T00:24:23.933Z,2.10
2022-08-22T00:25:24.823Z,2.00
2022-08-22T00:26:23.904Z,2.40
2022-08-22T00:27:23.916Z,2.20
2022-08-22T00:28:23.887Z,2.10
2022-08-22T00:29:23.882Z,2.40
2022-08-22T00:30:23.856Z,2.40
2022-08-22T00:31:23.852Z,2.30
2022-08-22T00:32:23.864Z,2.30
2022-08-22T00:33:23.832Z,2.10
2022-08-22T00:34:23.815Z,2.30
2022-08-22T00:35:23.811Z,2.30
2022-08-22T00:36:23.794Z,2.40
2022-08-22T00:37:24.248Z,2.20
2022-08-22T00:38:23.790Z,2.30
2022-08-22T00:39:23.787Z,2.50
2022-08-22T00:40:23.772Z,2.40
2022-08-22T00:41:23.763Z,2.30
2022-08-22T00:42:31.386Z,2.50
2022-08-22T00:43:23.766Z,2.50
2022-08-22T00:44:23.730Z,2.30
2022-08-22T00:45:23.719Z,2.60
2022-08-22T00:46:23.705Z,2.30
2022-08-22T00:47:23.716Z,2.20
2022-08-22T00:48:23.692Z,2.50
2022-08-22T00:49:24.384Z,2.40
2022-08-22T00:50:23.676Z,2.60
2022-08-22T00:51:23.655Z,2.60
2022-08-22T00:52:23.667Z,2.10
2022-08-22T00:53:23.634Z,2.40
2022-08-22T00:54:23.622Z,2.30
2022-08-22T00:55:23.619Z,2.70
2022-08-22T00:56:23.600Z,2.60
2022-08-22T00:57:23.608Z,2.30
2022-08-22T00:58:23.582Z,2.30
2022-08-22T00:59:24.262Z,2.40
2022-08-22T01:00:23.561Z,2.60
2022-08-22T01:01:23.602Z,2.60
2022-08-22T01:02:23.554Z,2.60
2022-08-22T01:03:23.529Z,2.50
2022-08-22T01:04:23.514Z,2.60
2022-08-22T01:05:23.512Z,2.40
2022-08-22T01:06:23.493Z,2.50
2022-08-22T01:07:23.507Z,2.70
2022-08-22T01:08:23.476Z,2.60
2022-08-22T01:09:23.467Z,2.70
2022-08-22T01:10:23.452Z,3.00
2022-08-22T01:11:23.449Z,2.90
2022-08-22T01:12:23.456Z,2.60
2022-08-22T01:13:23.419Z,2.70
2022-08-22T01:14:35.057Z,2.90
2022-08-22T01:15:23.406Z,2.70
2022-08-22T01:16:23.395Z,2.60
2022-08-22T01:17:23.398Z,2.60
2022-08-22T01:18:23.373Z,2.60
2022-08-22T01:19:23.360Z,2.60
2022-08-22T01:20:23.356Z,2.70
2022-08-22T01:21:24.389Z,2.80
2022-08-22T01:22:23.353Z,2.70
2022-08-22T01:23:23.314Z,2.90
2022-08-22T01:24:24.126Z,2.80
2022-08-22T01:25:26.096Z,3.10
2022-08-22T01:26:23.288Z,2.80
2022-08-22T01:27:23.295Z,2.80
2022-08-22T01:28:23.345Z,2.60
2022-08-22T01:29:28.401Z,2.70
2022-08-22T01:30:23.377Z,2.60
2022-08-22T01:31:23.233Z,2.80
2022-08-22T01:32:23.248Z,2.80
2022-08-22T01:33:23.213Z,2.50
2022-08-22T01:34:23.203Z,2.70
2022-08-22T01:35:23.189Z,2.50
2022-08-22T01:36:23.183Z,2.60
2022-08-22T01:37:23.202Z,2.40
2022-08-22T01:38:23.160Z,2.90
2022-08-22T01:39:23.154Z,2.60
2022-08-22T01:40:23.231Z,2.90
2022-08-22T01:41:23.125Z,2.90
2022-08-22T01:42:23.154Z,2.60
2022-08-22T01:43:23.108Z,2.60
2022-08-22T01:44:23.105Z,2.70
2022-08-22T01:45:23.082Z,2.90
2022-08-22T01:46:23.077Z,2.70
2022-08-22T01:47:23.083Z,2.90
2022-08-22T01:48:23.054Z,2.70
2022-08-22T01:49:23.043Z,3.00
2022-08-22T01:50:23.038Z,2.80
2022-08-22T01:51:23.024Z,2.60
2022-08-22T01:52:23.031Z,2.70
2022-08-22T01:53:23.000Z,2.70
2022-08-22T01:54:22.990Z,2.70
2022-08-22T01:55:22.984Z,2.70
2022-08-22T01:56:22.978Z,3.00
2022-08-22T01:57:22.984Z,2.90
2022-08-22T01:58:22.954Z,3.00
2022-08-22T01:59:22.936Z,2.80
2022-08-22T02:00:34.907Z,3.10
2022-08-22T02:01:22.965Z,2.80
2022-08-22T02:02:22.929Z,2.90
2022-08-22T02:03:22.896Z,3.00
2022-08-22T02:04:22.890Z,3.10
2022-08-22T02:05:22.873Z,2.80
2022-08-22T02:06:22.868Z,2.70
2022-08-22T02:07:26.506Z,2.80
2022-08-22T02:08:22.855Z,3.00
2022-08-22T02:09:22.829Z,2.90
2022-08-22T02:10:22.830Z,2.90
2022-08-22T02:11:22.815Z,2.80
2022-08-22T02:12:22.822Z,3.00
2022-08-22T02:13:22.788Z,2.90
2022-08-22T02:14:22.787Z,3.00
2022-08-22T02:15:22.768Z,2.90
2022-08-22T02:16:22.758Z,3.20
2022-08-22T02:17:22.772Z,2.80
2022-08-22T02:18:22.745Z,3.10
2022-08-22T02:19:22.732Z,2.90
2022-08-22T02:20:22.719Z,2.70
2022-08-22T02:21:22.819Z,3.10
2022-08-22T02:22:22.715Z,2.90
2022-08-22T02:23:22.684Z,3.00
2022-08-22T02:24:22.676Z,3.00
2022-08-22T02:25:22.659Z,3.10
2022-08-22T02:26:22.659Z,3.10
2022-08-22T02:27:22.669Z,3.10
2022-08-22T02:28:22.637Z,3.20
2022-08-22T02:29:22.622Z,3.10
2022-08-22T02:30:22.614Z,3.10
2022-08-22T02:31:22.604Z,2.90
2022-08-22T02:32:22.591Z,3.10
2022-08-22T02:33:22.604Z,3.00
2022-08-22T02:34:22.595Z,3.20
2022-08-22T02:35:22.557Z,3.00
2022-08-22T02:36:22.548Z,3.00
2022-08-22T02:37:22.537Z,3.00
2022-08-22T02:38:22.566Z,3.10
2022-08-22T02:39:22.512Z,3.30
2022-08-22T02:40:22.614Z,3.20
2022-08-22T02:41:22.500Z,2.80
2022-08-22T02:42:22.507Z,3.20
2022-08-22T02:43:22.472Z,3.00
2022-08-22T02:44:22.467Z,2.80
2022-08-22T02:45:22.452Z,3.20
2022-08-22T02:46:22.446Z,2.90
2022-08-22T02:47:22.457Z,3.10
2022-08-22T02:48:22.428Z,3.20
2022-08-22T02:49:22.415Z,3.00
2022-08-22T02:50:22.408Z,3.20
2022-08-22T02:51:22.388Z,3.50
2022-08-22T02:52:22.403Z,3.20
2022-08-22T02:53:22.366Z,3.40
2022-08-22T02:54:22.371Z,3.30
2022-08-22T02:55:22.352Z,3.00
2022-08-22T02:56:22.345Z,3.30
2022-08-22T02:57:22.438Z,3.20
2022-08-22T02:58:22.324Z,3.30
2022-08-22T02:59:22.303Z,3.30
2022-08-22T03:00:31.701Z,3.50
2022-08-22T03:01:22.366Z,3.20
2022-08-22T03:02:22.304Z,3.10
2022-08-22T03:03:22.267Z,3.50
2022-08-22T03:04:22.260Z,3.10
2022-08-22T03:05:22.242Z,3.10
2022-08-22T03:06:22.277Z,3.10
2022-08-22T03:07:22.226Z,3.40
2022-08-22T03:08:22.240Z,3.00
2022-08-22T03:09:22.201Z,3.30
2022-08-22T03:10:22.200Z,3.30
2022-08-22T03:11:22.179Z,3.00
2022-08-22T03:12:22.183Z,3.20
2022-08-22T03:13:22.185Z,3.10
2022-08-22T03:14:22.162Z,3.50
2022-08-22T03:15:22.135Z,3.30
2022-08-22T03:16:22.135Z,3.20
2022-08-22T03:17:22.119Z,3.20
2022-08-22T03:18:22.130Z,3.40
2022-08-22T03:19:22.095Z,3.40
2022-08-22T03:20:22.094Z,3.10
2022-08-22T03:21:22.079Z,3.00
2022-08-22T03:22:22.070Z,3.10
2022-08-22T03:23:22.074Z,3.20
2022-08-22T03:24:22.048Z,3.50
2022-08-22T03:25:22.036Z,3.40
2022-08-22T03:26:22.039Z,3.50
2022-08-22T03:27:32.385Z,3.30
2022-08-22T03:28:22.093Z,3.60
2022-08-22T03:29:21.992Z,3.30
2022-08-22T03:30:21.982Z,3.30
2022-08-22T03:31:21.974Z,3.60
2022-08-22T03:32:21.991Z,3.40
2022-08-22T03:33:21.949Z,3.40
2022-08-22T03:34:21.951Z,3.10
2022-08-22T03:35:21.934Z,3.00
2022-08-22T03:36:21.928Z,2.80
2022-08-22T03:37:21.935Z,2.80
2022-08-22T03:38:21.902Z,3.10
2022-08-22T03:39:21.888Z,3.20
2022-08-22T03:40:21.963Z,3.20
2022-08-22T03:41:21.874Z,3.40
2022-08-22T03:42:21.881Z,3.00
2022-08-22T03:43:21.848Z,3.30
2022-08-22T03:44:21.844Z,3.30
2022-08-22T03:45:21.827Z,3.00
2022-08-22T03:46:21.818Z,3.10
2022-08-22T03:47:21.848Z,3.20
2022-08-22T03:48:21.799Z,3.30
2022-08-22T03:49:21.785Z,3.10
2022-08-22T03:50:21.779Z,3.10
2022-08-22T03:51:21.769Z,3.30
2022-08-22T03:52:21.795Z,3.40
2022-08-22T03:53:21.743Z,3.40
2022-08-22T03:54:21.734Z,3.50
2022-08-22T03:55:21.717Z,3.50
2022-08-22T03:56:21.715Z,3.50
2022-08-22T03:57:21.697Z,3.30
2022-08-22T03:58:28.039Z,3.40
2022-08-22T03:59:21.690Z,3.30
2022-08-22T04:00:21.671Z,3.60
2022-08-22T04:01:21.662Z,3.40
2022-08-22T04:02:42.575Z,3.40
2022-08-22T04:03:21.672Z,3.60
2022-08-22T04:04:21.640Z,3.50
2022-08-22T04:05:21.626Z,3.40
2022-08-22T04:06:21.612Z,3.60
2022-08-22T04:07:31.691Z,3.60
2022-08-22T04:08:26.009Z,3.70
2022-08-22T04:09:21.586Z,3.80
2022-08-22T04:10:21.567Z,3.50
2022-08-22T04:11:21.566Z,3.60
2022-08-22T04:12:21.576Z,3.40
2022-08-22T04:13:21.536Z,3.40
2022-08-22T04:14:21.527Z,3.40
2022-08-22T04:15:21.509Z,3.80
2022-08-22T04:16:21.515Z,3.90
2022-08-22T04:17:21.512Z,3.80
2022-08-22T04:18:21.502Z,3.70
2022-08-22T04:19:21.475Z,3.70
2022-08-22T04:20:21.462Z,3.70
2022-08-22T04:21:21.465Z,3.60
2022-08-22T04:22:21.466Z,3.80
2022-08-22T04:23:21.428Z,3.30
2022-08-22T04:24:21.421Z,3.70
2022-08-22T04:25:21.411Z,3.60
2022-08-22T04:26:21.402Z,3.40
2022-08-22T04:27:21.410Z,3.60
2022-08-22T04:28:21.381Z,3.90
2022-08-22T04:29:21.367Z,3.70
2022-08-22T04:30:21.360Z,3.80
2022-08-22T04:31:21.349Z,3.80
2022-08-22T04:32:21.361Z,3.40
2022-08-22T04:33:21.327Z,3.60
2022-08-22T04:34:21.320Z,3.60
2022-08-22T04:35:21.313Z,3.40
2022-08-22T04:36:21.297Z,3.70
2022-08-22T04:37:21.305Z,3.40
2022-08-22T04:38:21.277Z,3.50
2022-08-22T04:39:21.279Z,3.30
2022-08-22T04:40:21.327Z,3.60
2022-08-22T04:41:21.243Z,3.70
2022-08-22T04:42:36.673Z,3.70
2022-08-22T04:43:21.228Z,3.70
2022-08-22T04:44:21.221Z,3.60
2022-08-22T04:45:21.209Z,3.70
2022-08-22T04:46:21.205Z,3.70
2022-08-22T04:47:21.201Z,3.60
2022-08-22T04:48:21.181Z,3.80
2022-08-22T04:49:21.233Z,4.00
2022-08-22T04:50:21.163Z,3.90
2022-08-22T04:51:21.158Z,3.80
2022-08-22T04:52:21.164Z,3.80
2022-08-22T04:53:21.117Z,3.70
2022-08-22T04:54:21.111Z,3.70
2022-08-22T04:55:21.101Z,3.90
2022-08-22T04:56:21.093Z,3.80
2022-08-22T04:57:21.099Z,3.70
2022-08-22T04:58:21.070Z,4.00
2022-08-22T04:59:21.052Z,3.70
2022-08-22T05:00:21.046Z,3.80
2022-08-22T05:01:21.119Z,4.00
2022-08-22T05:02:21.046Z,3.70
2022-08-22T05:03:21.013Z,3.90
2022-08-22T05:04:21.009Z,3.90
2022-08-22T05:05:21.015Z,4.20
2022-08-22T05:06:20.992Z,3.80
2022-08-22T05:07:20.992Z,3.70
2022-08-22T05:08:20.968Z,4.10
2022-08-22T05:09:20.951Z,3.60
2022-08-22T05:10:20.947Z,3.90
2022-08-22T05:11:20.927Z,3.80
2022-08-22T05:12:20.943Z,3.50
2022-08-22T05:13:20.907Z,3.50
2022-08-22T05:14:20.903Z,3.70
2022-08-22T05:15:23.315Z,3.70
2022-08-22T05:16:20.885Z,3.70
2022-08-22T05:17:20.883Z,3.50
2022-08-22T05:18:20.865Z,4.00
2022-08-22T05:19:28.368Z,3.80
2022-08-22T05:20:20.845Z,3.80
2022-08-22T05:21:20.826Z,4.00
2022-08-22T05:22:20.840Z,4.20
2022-08-22T05:23:20.847Z,4.10
2022-08-22T05:24:20.799Z,4.00
2022-08-22T05:25:20.779Z,4.20
2022-08-22T05:26:20.785Z,4.60
2022-08-22T05:27:20.762Z,4.30
2022-08-22T05:28:20.775Z,4.10
2022-08-22T05:29:20.746Z,4.20
2022-08-22T05:30:20.728Z,4.80
2022-08-22T05:31:23.219Z,4.50
2022-08-22T05:32:20.710Z,4.20
2022-08-22T05:33:20.725Z,4.50
2022-08-22T05:34:20.693Z,4.30
2022-08-22T05:35:20.681Z,4.70
2022-08-22T05:36:20.665Z,4.50
2022-08-22T05:37:20.663Z,4.50
2022-08-22T05:38:20.677Z,4.40
2022-08-22T05:39:20.644Z,4.30
2022-08-22T05:40:20.721Z,4.30
2022-08-22T05:41:20.621Z,4.50
2022-08-22T05:42:20.602Z,4.60
2022-08-22T05:43:20.619Z,5.00
2022-08-22T05:44:20.581Z,4.80
2022-08-22T05:45:20.579Z,4.20
2022-08-22T05:46:20.560Z,4.20
2022-08-22T05:47:20.579Z,4.00
2022-08-22T05:48:20.541Z,4.70
2022-08-22T05:49:20.545Z,4.20
2022-08-22T05:50:20.519Z,4.20
2022-08-22T05:51:20.512Z,4.10
2022-08-22T05:52:20.518Z,3.90
2022-08-22T05:53:20.492Z,4.40
2022-08-22T05:54:20.479Z,4.00
2022-08-22T05:55:20.472Z,4.30
2022-08-22T05:56:20.455Z,4.50
2022-08-22T05:57:20.472Z,4.50
2022-08-22T05:58:21.688Z,3.80
2022-08-22T05:59:20.429Z,4.40
2022-08-22T06:00:21.626Z,4.00
2022-08-22T06:01:20.467Z,3.90
2022-08-22T06:02:20.411Z,4.20
2022-08-22T06:03:20.388Z,3.90
2022-08-22T06:04:20.370Z,4.00
2022-08-22T06:05:20.368Z,4.10
2022-08-22T06:06:20.375Z,4.10
2022-08-22T06:07:20.367Z,4.00
2022-08-22T06:08:20.334Z,3.90
2022-08-22T06:09:20.329Z,3.70
2022-08-22T06:10:20.309Z,3.80
2022-08-22T06:11:20.306Z,4.00
2022-08-22T06:12:22.084Z,3.70
2022-08-22T06:13:24.517Z,3.70
2022-08-22T06:14:20.272Z,3.40
2022-08-22T06:15:20.935Z,3.50
2022-08-22T06:16:21.122Z,3.40
2022-08-22T06:17:20.258Z,3.70
2022-08-22T06:18:20.226Z,3.60
2022-08-22T06:19:20.391Z,3.30
2022-08-22T06:20:20.206Z,3.70
2022-08-22T06:21:20.203Z,3.10
2022-08-22T06:22:20.213Z,3.70
2022-08-22T06:23:20.176Z,3.30
2022-08-22T06:24:20.164Z,3.60
2022-08-22T06:25:20.176Z,3.10
2022-08-22T06:26:21.391Z,3.30
2022-08-22T06:27:20.155Z,3.50
2022-08-22T06:28:20.128Z,3.00
2022-08-22T06:29:20.123Z,3.30
2022-08-22T06:30:20.127Z,3.60
2022-08-22T06:31:20.118Z,3.50
2022-08-22T06:32:30.608Z,3.50
2022-08-22T06:33:20.083Z,3.20
2022-08-22T06:34:20.058Z,3.50
2022-08-22T06:35:20.059Z,3.30
2022-08-22T06:36:20.602Z,3.00
2022-08-22T06:37:20.033Z,3.30
2022-08-22T06:38:20.016Z,3.10
2022-08-22T06:39:20.024Z,3.30
2022-08-22T06:40:20.084Z,3.30
2022-08-22T06:41:20.008Z,3.30
2022-08-22T06:42:19.980Z,3.40
2022-08-22T06:43:19.970Z,3.30
2022-08-22T06:44:19.955Z,3.40
2022-08-22T06:45:19.949Z,3.80
2022-08-22T06:46:19.954Z,3.10
2022-08-22T06:47:19.928Z,3.20
2022-08-22T06:48:19.918Z,3.40
2022-08-22T06:49:19.906Z,3.20
2022-08-22T06:50:19.943Z,3.30
2022-08-22T06:51:19.914Z,2.90
2022-08-22T06:52:19.884Z,3.20
2022-08-22T06:53:19.876Z,3.30
2022-08-22T06:54:19.848Z,3.00
2022-08-22T06:55:19.844Z,3.00
2022-08-22T06:56:19.864Z,3.30
2022-08-22T06:57:19.822Z,3.30
2022-08-22T06:58:19.816Z,3.10
2022-08-22T06:59:19.801Z,3.30
2022-08-22T07:00:19.801Z,3.20
2022-08-22T07:01:19.846Z,3.20
2022-08-22T07:02:19.786Z,3.00
2022-08-22T07:03:19.757Z,3.00
2022-08-22T07:04:19.742Z,3.10
2022-08-22T07:05:19.738Z,3.30
2022-08-22T07:06:19.727Z,3.00
2022-08-22T07:07:20.561Z,3.30
2022-08-22T07:08:19.703Z,3.10
2022-08-22T07:09:19.695Z,3.00
2022-08-22T07:10:19.682Z,3.10
2022-08-22T07:11:19.673Z,3.10
2022-08-22T07:12:19.681Z,3.30
2022-08-22T07:13:19.658Z,3.30
2022-08-22T07:14:19.642Z,3.10
2022-08-22T07:15:19.634Z,3.10
2022-08-22T07:16:19.622Z,3.00
2022-08-22T07:17:19.637Z,3.20
2022-08-22T07:18:19.602Z,3.10
2022-08-22T07:19:19.598Z,3.40
2022-08-22T07:20:19.582Z,3.20
2022-08-22T07:21:19.589Z,3.00
2022-08-22T07:22:19.557Z,3.20
2022-08-22T07:23:19.552Z,2.90
2022-08-22T07:24:19.538Z,3.20
2022-08-22T07:25:19.533Z,3.20
2022-08-22T07:26:19.536Z,3.20
2022-08-22T07:27:19.511Z,3.10
2022-08-22T07:28:19.495Z,3.20
2022-08-22T07:29:19.491Z,3.50
2022-08-22T07:30:27.644Z,3.40
2022-08-22T07:31:19.489Z,3.20
2022-08-22T07:32:19.455Z,3.10
2022-08-22T07:33:26.662Z,3.10
2022-08-22T07:34:19.438Z,3.20
2022-08-22T07:35:19.426Z,3.40
2022-08-22T07:36:19.438Z,3.20
2022-08-22T07:37:19.407Z,3.00
2022-08-22T07:38:19.392Z,3.20
2022-08-22T07:39:19.403Z,3.50
2022-08-22T07:40:19.401Z,3.30
2022-08-22T07:41:19.375Z,3.40
2022-08-22T07:42:19.372Z,3.30
2022-08-22T07:43:19.350Z,3.30
2022-08-22T07:44:19.375Z,3.10
2022-08-22T07:45:19.322Z,3.40
2022-08-22T07:46:19.309Z,3.30
2022-08-22T07:47:26.241Z,3.20
2022-08-22T07:48:25.457Z,3.00
2022-08-22T07:49:19.308Z,3.30
2022-08-22T07:50:19.267Z,3.10
2022-08-22T07:51:19.263Z,3.30
2022-08-22T07:52:19.917Z,3.30
2022-08-22T07:53:19.243Z,3.50
2022-08-22T07:54:19.228Z,3.30
2022-08-22T07:55:19.233Z,3.10
2022-08-22T07:56:19.226Z,3.20
2022-08-22T07:57:19.228Z,3.00
2022-08-22T07:58:19.184Z,3.00
2022-08-22T07:59:19.188Z,3.30
2022-08-22T08:00:19.166Z,3.30
2022-08-22T08:01:19.263Z,2.90
2022-08-22T08:02:19.142Z,2.90
2022-08-22T08:03:19.138Z,3.00
2022-08-22T08:04:19.121Z,3.10
2022-08-22T08:05:19.115Z,3.00
2022-08-22T08:06:19.119Z,2.90
2022-08-22T08:07:19.102Z,3.00
2022-08-22T08:08:19.078Z,3.10
2022-08-22T08:09:19.079Z,2.70
2022-08-22T08:10:19.065Z,2.80
2022-08-22T08:11:19.071Z,3.20
2022-08-22T08:12:19.038Z,2.90
2022-08-22T08:13:19.032Z,3.00
2022-08-22T08:14:19.019Z,2.70
2022-08-22T08:15:19.012Z,2.50
2022-08-22T08:16:19.019Z,3.00
2022-08-22T08:17:19.004Z,2.90
2022-08-22T08:18:18.979Z,3.00
2022-08-22T08:19:18.971Z,2.80
2022-08-22T08:20:18.958Z,3.00
2022-08-22T08:21:18.969Z,2.80
2022-08-22T08:22:18.933Z,3.20
2022-08-22T08:23:18.926Z,2.90
2022-08-22T08:24:18.952Z,2.70
2022-08-22T08:25:18.919Z,2.60
2022-08-22T08:26:18.915Z,3.10
2022-08-22T08:27:18.886Z,2.90
2022-08-22T08:28:18.871Z,3.10
2022-08-22T08:29:18.868Z,3.20
2022-08-22T08:30:18.859Z,3.00
2022-08-22T08:31:18.867Z,3.00
2022-08-22T08:32:18.835Z,3.20
2022-08-22T08:33:25.674Z,3.20
2022-08-22T08:34:18.827Z,3.20
2022-08-22T08:35:18.804Z,3.10
2022-08-22T08:36:18.811Z,3.10
2022-08-22T08:37:18.787Z,2.80
2022-08-22T08:38:18.771Z,2.70
2022-08-22T08:39:18.763Z,3.00
2022-08-22T08:40:18.803Z,2.90
2022-08-22T08:41:22.513Z,2.70
2022-08-22T08:42:18.734Z,2.60
2022-08-22T08:43:18.741Z,2.70
2022-08-22T08:44:18.714Z,2.50
2022-08-22T08:45:18.716Z,2.80
2022-08-22T08:46:18.705Z,2.60
2022-08-22T08:47:18.677Z,3.00
2022-08-22T08:48:18.666Z,2.70
2022-08-22T08:49:18.659Z,2.80
2022-08-22T08:50:18.649Z,2.80
2022-08-22T08:51:18.663Z,2.70
2022-08-22T08:52:18.633Z,3.00
2022-08-22T08:53:18.615Z,2.80
2022-08-22T08:54:18.605Z,2.90
2022-08-22T08:55:19.780Z,2.60
2022-08-22T08:56:19.857Z,2.80
2022-08-22T08:57:18.579Z,2.80
2022-08-22T08:58:18.560Z,2.60
2022-08-22T08:59:18.554Z,2.80
2022-08-22T09:00:18.539Z,2.60
2022-08-22T09:01:19.418Z,3.10
2022-08-22T09:02:20.606Z,2.80
2022-08-22T09:03:24.051Z,2.80
2022-08-22T09:04:18.507Z,2.80
2022-08-22T09:05:19.591Z,2.50
2022-08-22T09:06:18.474Z,2.80
2022-08-22T09:07:18.491Z,3.00
2022-08-22T09:08:18.547Z,2.80
2022-08-22T09:09:18.452Z,2.80
2022-08-22T09:10:18.807Z,2.80
2022-08-22T09:11:18.429Z,2.70
2022-08-22T09:12:18.446Z,2.80
2022-08-22T09:13:18.407Z,3.00
2022-08-22T09:14:18.457Z,2.70
2022-08-22T09:15:18.387Z,2.40
2022-08-22T09:16:18.743Z,2.40
2022-08-22T09:17:18.394Z,2.70
2022-08-22T09:18:18.475Z,2.60
2022-08-22T09:19:18.348Z,2.60
2022-08-22T09:20:19.579Z,2.70
2022-08-22T09:21:27.965Z,2.60
2022-08-22T09:22:18.341Z,2.70
2022-08-22T09:23:18.312Z,2.90
2022-08-22T09:24:18.292Z,2.50
2022-08-22T09:25:18.285Z,2.80
2022-08-22T09:26:18.277Z,2.80
2022-08-22T09:27:18.286Z,2.80
2022-08-22T09:28:18.252Z,2.80
2022-08-22T09:29:18.244Z,2.60
2022-08-22T09:30:18.233Z,2.80
2022-08-22T09:31:33.087Z,2.60
2022-08-22T09:32:19.125Z,2.70
2022-08-22T09:33:18.202Z,2.80
2022-08-22T09:34:23.731Z,2.90
2022-08-22T09:35:18.667Z,2.70
2022-08-22T09:36:18.169Z,2.80
2022-08-22T09:37:18.186Z,2.70
2022-08-22T09:38:18.153Z,2.90
2022-08-22T09:39:18.148Z,3.00
2022-08-22T09:41:18.139Z,2.70
2022-08-22T09:42:18.141Z,2.80
2022-08-22T09:43:21.049Z,2.90
2022-08-22T09:44:18.092Z,3.00
2022-08-22T09:45:18.087Z,2.70
2022-08-22T09:46:18.663Z,2.60
2022-08-22T09:47:18.076Z,2.80
2022-08-22T09:48:18.058Z,2.60
2022-08-22T09:49:18.043Z,2.70
2022-08-22T09:50:18.037Z,2.50
2022-08-22T09:51:31.545Z,2.90
2022-08-22T09:52:33.150Z,2.90
2022-08-22T09:53:18.002Z,2.70
2022-08-22T09:54:18.621Z,2.50
2022-08-22T09:55:17.978Z,2.90
2022-08-22T09:56:17.975Z,2.80
2022-08-22T09:57:17.984Z,2.60
2022-08-22T09:58:17.949Z,3.00
2022-08-22T09:59:17.936Z,2.80
2022-08-22T10:00:17.928Z,3.20
2022-08-22T10:01:18.002Z,2.70
2022-08-22T10:02:17.927Z,2.90
2022-08-22T10:03:17.896Z,2.90
2022-08-22T10:04:19.534Z,3.00
2022-08-22T10:05:40.282Z,2.50
2022-08-22T10:06:17.873Z,3.10
2022-08-22T10:07:17.871Z,3.00
2022-08-22T10:08:19.736Z,2.80
2022-08-22T10:09:17.829Z,2.90
2022-08-22T10:10:17.826Z,3.10
2022-08-22T10:11:18.568Z,2.90
2022-08-22T10:12:17.832Z,2.90
2022-08-22T10:13:17.789Z,2.80
2022-08-22T10:14:22.230Z,3.20
2022-08-22T10:15:17.774Z,2.80
2022-08-22T10:16:17.763Z,2.90
2022-08-22T10:17:21.533Z,2.70
2022-08-22T10:18:17.762Z,2.60
2022-08-22T10:19:18.042Z,2.80
2022-08-22T10:20:17.729Z,3.00
2022-08-22T10:21:17.710Z,2.80
2022-08-22T10:22:17.721Z,3.00
2022-08-22T10:23:17.686Z,2.80
2022-08-22T10:24:25.457Z,3.00
2022-08-22T10:25:18.569Z,3.10
2022-08-22T10:26:23.064Z,2.60
2022-08-22T10:27:17.674Z,2.80
2022-08-22T10:28:17.642Z,2.80
2022-08-22T10:29:17.634Z,3.10
2022-08-22T10:30:17.618Z,3.10
2022-08-22T10:31:18.195Z,3.00
2022-08-22T10:32:17.619Z,2.50
2022-08-22T10:33:17.589Z,3.00
2022-08-22T10:34:17.582Z,2.70
2022-08-22T10:35:17.572Z,2.90
2022-08-22T10:36:17.565Z,2.80
2022-08-22T10:37:17.569Z,2.60
2022-08-22T10:38:17.556Z,2.90
2022-08-22T10:39:17.526Z,2.90
2022-08-22T10:40:17.605Z,2.90
2022-08-22T10:41:17.504Z,2.80
2022-08-22T10:42:18.672Z,2.70
2022-08-22T10:43:17.482Z,2.60
2022-08-22T10:44:17.476Z,2.50
2022-08-22T10:45:35.219Z,2.60
2022-08-22T10:46:17.468Z,2.70
2022-08-22T10:47:18.132Z,2.70
2022-08-22T10:48:17.441Z,3.00
2022-08-22T10:49:18.058Z,2.60
2022-08-22T10:50:17.474Z,2.50
2022-08-22T10:51:17.400Z,2.70
2022-08-22T10:52:17.423Z,2.40
2022-08-22T10:53:17.416Z,2.50
2022-08-22T10:54:20.080Z,2.40
2022-08-22T10:55:17.361Z,2.60
2022-08-22T10:56:17.355Z,2.70
2022-08-22T10:57:20.831Z,2.60
2022-08-22T10:58:17.343Z,3.00
2022-08-22T10:59:17.323Z,2.60
2022-08-22T11:00:17.409Z,2.70
2022-08-22T11:01:38.020Z,2.50
2022-08-22T11:02:17.318Z,2.60
2022-08-22T11:03:21.438Z,2.70
2022-08-22T11:04:17.288Z,2.70
2022-08-22T11:05:17.259Z,2.90
2022-08-22T11:06:17.269Z,3.00
2022-08-22T11:07:17.267Z,2.70
2022-08-22T11:08:17.232Z,2.80
2022-08-22T11:09:17.223Z,2.60
2022-08-22T11:10:17.266Z,2.90
2022-08-22T11:11:17.673Z,2.50
2022-08-22T11:12:17.208Z,2.60
2022-08-22T11:13:17.245Z,2.50
2022-08-22T11:14:17.183Z,2.50
2022-08-22T11:15:27.266Z,2.40
2022-08-22T11:16:17.161Z,2.50
2022-08-22T11:17:28.263Z,2.70
2022-08-22T11:18:17.138Z,2.70
2022-08-22T11:19:17.120Z,2.40
2022-08-22T11:20:17.112Z,2.40
2022-08-22T11:21:17.097Z,2.70
2022-08-22T11:22:17.108Z,2.80
2022-08-22T11:23:17.080Z,2.50
2022-08-22T11:24:17.761Z,2.70
2022-08-22T11:25:23.775Z,2.30
2022-08-22T11:26:30.018Z,2.60
2022-08-22T11:27:17.739Z,2.20
2022-08-22T11:28:17.559Z,2.50
2022-08-22T11:29:17.011Z,2.50
2022-08-22T11:30:18.682Z,2.20
2022-08-22T11:31:16.992Z,2.50
2022-08-22T11:32:17.011Z,2.60
2022-08-22T11:33:16.981Z,2.70
2022-08-22T11:34:16.968Z,2.60
2022-08-22T11:35:16.951Z,2.30
2022-08-22T11:36:17.401Z,2.40
2022-08-22T11:37:16.955Z,2.50
2022-08-22T11:38:16.928Z,2.50
2022-08-22T11:39:18.625Z,2.60
2022-08-22T11:40:17.056Z,2.50
2022-08-22T11:41:16.890Z,2.40
2022-08-22T11:42:21.796Z,2.60
2022-08-22T11:43:18.363Z,2.30
2022-08-22T11:44:16.863Z,2.40
2022-08-22T11:45:16.901Z,2.30
2022-08-22T11:46:19.934Z,2.20
2022-08-22T11:47:16.861Z,2.30
2022-08-22T11:48:16.822Z,2.20
2022-08-22T11:49:16.826Z,2.30
2022-08-22T11:50:16.896Z,2.30
2022-08-22T11:51:16.787Z,2.30
2022-08-22T11:52:16.809Z,2.50
2022-08-22T11:53:16.766Z,2.50
2022-08-22T11:54:16.760Z,2.50
2022-08-22T11:55:16.756Z,2.30
2022-08-22T11:56:16.743Z,2.20
2022-08-22T11:57:16.745Z,2.30
2022-08-22T11:58:16.721Z,2.20
2022-08-22T11:59:16.705Z,2.30
2022-08-22T12:00:16.699Z,2.60
2022-08-22T12:01:18.354Z,2.20
2022-08-22T12:02:16.700Z,2.30
2022-08-22T12:03:16.665Z,2.50
2022-08-22T12:04:16.663Z,2.40
2022-08-22T12:05:20.206Z,2.30
2022-08-22T12:06:16.643Z,2.40
2022-08-22T12:07:16.645Z,2.30
2022-08-22T12:08:21.183Z,2.40
2022-08-22T12:09:17.938Z,2.50
2022-08-22T12:10:16.641Z,2.60
2022-08-22T12:11:16.584Z,2.20
2022-08-22T12:12:17.059Z,2.30
2022-08-22T12:13:16.569Z,2.30
2022-08-22T12:14:16.560Z,2.50
2022-08-22T12:15:16.543Z,2.20
2022-08-22T12:16:16.543Z,2.40
2022-08-22T12:17:22.772Z,2.20
2022-08-22T12:18:19.978Z,2.50
2022-08-22T12:19:16.505Z,2.20
2022-08-22T12:20:17.341Z,2.30
2022-08-22T12:21:16.484Z,2.40
2022-08-22T12:22:16.505Z,2.70
2022-08-22T12:23:16.462Z,2.50
2022-08-22T12:24:19.048Z,2.70
2022-08-22T12:25:16.445Z,2.50
2022-08-22T12:26:16.445Z,2.50
2022-08-22T12:27:18.495Z,2.60
2022-08-22T12:28:16.420Z,2.60
2022-08-22T12:29:16.873Z,2.50
2022-08-22T12:30:16.497Z,2.40
2022-08-22T12:31:16.384Z,2.30
2022-08-22T12:32:16.397Z,2.40
2022-08-22T12:33:22.011Z,2.50
2022-08-22T12:34:16.361Z,2.70
2022-08-22T12:35:16.341Z,2.40
2022-08-22T12:36:17.977Z,2.20
2022-08-22T12:37:16.346Z,2.80
2022-08-22T12:38:26.560Z,2.20
2022-08-22T12:39:16.312Z,2.50
2022-08-22T12:40:16.527Z,2.50
2022-08-22T12:41:28.079Z,2.60
2022-08-22T12:42:16.282Z,2.40
2022-08-22T12:43:16.279Z,2.30
2022-08-22T12:44:17.308Z,2.50
2022-08-22T12:45:17.137Z,2.30
2022-08-22T12:46:16.250Z,2.50
2022-08-22T12:47:17.223Z,2.70
2022-08-22T12:48:16.239Z,2.20
2022-08-22T12:49:16.201Z,2.40
2022-08-22T12:50:16.279Z,2.80
2022-08-22T12:51:17.550Z,2.40
2022-08-22T12:52:16.174Z,2.50
2022-08-22T12:53:20.091Z,2.40
2022-08-22T12:54:16.153Z,2.50
2022-08-22T12:55:16.141Z,2.50
2022-08-22T12:56:16.133Z,2.40
2022-08-22T12:57:24.247Z,2.50
2022-08-22T12:58:16.145Z,2.20
2022-08-22T12:59:16.117Z,2.60
2022-08-22T13:00:16.095Z,2.30
2022-08-22T13:01:16.085Z,2.50
2022-08-22T13:02:16.072Z,2.40
2022-08-22T13:03:16.084Z,2.50
2022-08-22T13:04:29.756Z,2.60
2022-08-22T13:05:19.872Z,2.30
2022-08-22T13:06:16.037Z,2.40
2022-08-22T13:07:16.020Z,2.40
2022-08-22T13:08:16.040Z,2.30
2022-08-22T13:09:15.999Z,2.40
2022-08-22T13:10:17.596Z,2.10
2022-08-22T13:11:22.635Z,2.30
2022-08-22T13:12:20.021Z,2.30
2022-08-22T13:13:21.368Z,2.20
2022-08-22T13:14:18.978Z,2.40
2022-08-22T13:15:15.953Z,2.30
2022-08-22T13:16:15.955Z,2.10
2022-08-22T13:17:24.349Z,2.40
2022-08-22T13:18:29.949Z,2.20
2022-08-22T13:19:15.905Z,2.50
2022-08-22T13:20:15.893Z,2.50
2022-08-22T13:21:15.907Z,2.40